Time;durP1;ratioP1;P1;durP2;ratioP2;P2;SDS_P1;SDS_P2;PMS_P1;PMS_P2;Temp;Humidity;BMP_temperature;BMP_pressure;BME280_temperature;BME280_humidity;BME280_pressure;Samples;Min_cycle;Max_cycle;Signal;HPM_P1;HPM_P2
2023/11/26 00:02:11;;;;;;;5.23;3.33;;;;;;;;;;5113707;28;20481;-59
2023/11/26 00:04:37;;;;;;;4.33;3.37;;;;;;;;;;5115228;28;20454;-60
2023/11/26 00:07:03;;;;;;;5.87;3.80;;;;;;;;;;5115444;28;20024;-60
2023/11/26 00:09:30;;;;;;;6.53;3.60;;;;;;;;;;5114962;28;20020;-59
2023/11/26 00:11:56;;;;;;;4.20;3.63;;;;;;;;;;5115066;28;20468;-59
2023/11/26 00:14:22;;;;;;;4.67;3.70;;;;;;;;;;5114472;28;20031;-59
2023/11/26 00:16:48;;;;;;;7.57;3.40;;;;;;;;;;5114525;28;20027;-60
2023/11/26 00:19:17;;;;;;;4.87;3.40;;;;;;;;;;5114942;28;20053;-59
2023/11/26 00:21:43;;;;;;;7.37;3.83;;;;;;;;;;5114348;28;20046;-59
2023/11/26 00:24:09;;;;;;;3.90;3.03;;;;;;;;;;5114382;28;20051;-60
2023/11/26 00:26:35;;;;;;;4.03;2.80;;;;;;;;;;5114661;28;20073;-60
2023/11/26 00:29:01;;;;;;;6.63;4.03;;;;;;;;;;5114403;28;20031;-60
2023/11/26 00:31:27;;;;;;;11.25;4.18;;;;;;;;;;5114436;28;20147;-59
2023/11/26 00:33:53;;;;;;;5.27;3.90;;;;;;;;;;5115030;28;20460;-60
2023/11/26 00:36:21;;;;;;;4.13;3.33;;;;;;;;;;5114293;28;20038;-60
2023/11/26 00:38:47;;;;;;;4.05;2.83;;;;;;;;;;5114893;28;20040;-60
2023/11/26 00:41:13;;;;;;;5.95;4.13;;;;;;;;;;5113991;28;20472;-60
2023/11/26 00:43:40;;;;;;;5.28;3.85;;;;;;;;;;5114427;28;20518;-59
2023/11/26 00:46:06;;;;;;;6.72;3.60;;;;;;;;;;5114294;28;20369;-60
2023/11/26 00:48:32;;;;;;;7.77;3.83;;;;;;;;;;5114896;28;20030;-60
2023/11/26 00:50:58;;;;;;;5.60;3.50;;;;;;;;;;5114035;28;20035;-60
2023/11/26 00:53:24;;;;;;;7.70;3.57;;;;;;;;;;5114365;28;20373;-60
2023/11/26 00:55:50;;;;;;;4.67;3.30;;;;;;;;;;5114230;28;20055;-60
2023/11/26 00:58:16;;;;;;;4.70;3.83;;;;;;;;;;5114863;28;20020;-60
2023/11/26 01:00:42;;;;;;;6.63;3.63;;;;;;;;;;5114396;28;20027;-60
2023/11/26 01:03:08;;;;;;;5.10;4.10;;;;;;;;;;5113739;28;20030;-60
2023/11/26 01:05:34;;;;;;;6.22;4.05;;;;;;;;;;5113810;28;20415;-58
2023/11/26 01:08:01;;;;;;;4.35;3.95;;;;;;;;;;5114795;28;20059;-58
2023/11/26 01:10:27;;;;;;;5.60;3.90;;;;;;;;;;5114350;28;20027;-58
2023/11/26 01:12:53;;;;;;;8.00;4.10;;;;;;;;;;5114712;28;20061;-58
2023/11/26 01:15:19;;;;;;;6.00;4.05;;;;;;;;;;5118844;28;20063;-58
2023/11/26 01:17:45;;;;;;;7.10;3.97;;;;;;;;;;5118553;28;20023;-58
2023/11/26 01:20:12;;;;;;;6.97;3.67;;;;;;;;;;5117799;28;20496;-58
2023/11/26 01:22:39;;;;;;;11.80;4.90;;;;;;;;;;5117837;28;20032;-58
2023/11/26 01:25:05;;;;;;;6.90;3.58;;;;;;;;;;5117853;28;20028;-58
2023/11/26 01:27:31;;;;;;;7.43;4.33;;;;;;;;;;5118334;28;20035;-58
2023/11/26 01:29:58;;;;;;;9.50;4.07;;;;;;;;;;5117679;28;20035;-58
2023/11/26 01:32:24;;;;;;;7.10;4.03;;;;;;;;;;5117637;28;20036;-58
2023/11/26 01:34:50;;;;;;;4.37;3.20;;;;;;;;;;5117984;28;20036;-58
2023/11/26 01:37:16;;;;;;;6.77;4.57;;;;;;;;;;5117665;28;20516;-58
2023/11/26 01:39:42;;;;;;;7.88;4.60;;;;;;;;;;5117236;28;20080;-58
2023/11/26 01:42:08;;;;;;;4.70;3.17;;;;;;;;;;5117541;28;20020;-60
2023/11/26 01:44:34;;;;;;;5.45;3.50;;;;;;;;;;5117464;28;20556;-60
2023/11/26 01:47:05;;;;;;;4.73;3.77;;;;;;;;;;5117466;28;20030;-59
2023/11/26 01:49:31;;;;;;;12.23;4.43;;;;;;;;;;5117136;28;20036;-60
2023/11/26 01:51:59;;;;;;;4.40;3.23;;;;;;;;;;5117315;28;20031;-60
2023/11/26 01:54:26;;;;;;;4.53;3.40;;;;;;;;;;5117281;28;20023;-58
2023/11/26 01:56:52;;;;;;;6.93;4.00;;;;;;;;;;5118221;28;20050;-58
2023/11/26 01:59:18;;;;;;;5.07;4.13;;;;;;;;;;5117294;28;20023;-58
2023/11/26 02:01:44;;;;;;;4.57;3.30;;;;;;;;;;5117788;28;20050;-58
2023/11/26 02:04:10;;;;;;;9.95;3.60;;;;;;;;;;5116973;28;20023;-58
2023/11/26 02:06:36;;;;;;;7.40;3.72;;;;;;;;;;5117004;28;20027;-58
2023/11/26 02:09:02;;;;;;;4.87;3.70;;;;;;;;;;5117470;28;20358;-58
2023/11/26 02:11:28;;;;;;;4.95;3.75;;;;;;;;;;5117610;28;20028;-58
2023/11/26 02:13:54;;;;;;;4.35;3.38;;;;;;;;;;5117100;28;20469;-58
2023/11/26 02:16:20;;;;;;;5.93;3.77;;;;;;;;;;5116931;28;20058;-58
2023/11/26 02:18:46;;;;;;;6.18;2.80;;;;;;;;;;5117472;28;20028;-58
2023/11/26 02:21:12;;;;;;;5.40;3.07;;;;;;;;;;5117217;28;20461;-57
2023/11/26 02:23:39;;;;;;;5.37;3.33;;;;;;;;;;5116675;28;20024;-58
2023/11/26 02:26:05;;;;;;;4.47;3.13;;;;;;;;;;5116358;28;20073;-58
2023/11/26 02:28:31;;;;;;;4.23;2.97;;;;;;;;;;5117214;28;20055;-58
2023/11/26 02:30:57;;;;;;;5.50;3.10;;;;;;;;;;5116716;28;20039;-58
2023/11/26 02:33:23;;;;;;;5.50;3.60;;;;;;;;;;5116487;28;20032;-58
2023/11/26 02:35:49;;;;;;;8.90;2.87;;;;;;;;;;5117022;28;20020;-58
2023/11/26 02:38:15;;;;;;;5.33;2.87;;;;;;;;;;5116716;28;20400;-58
2023/11/26 02:40:41;;;;;;;3.50;2.73;;;;;;;;;;5116089;28;20040;-58
2023/11/26 02:43:07;;;;;;;7.57;3.03;;;;;;;;;;5116280;28;20020;-58
2023/11/26 02:45:33;;;;;;;5.60;2.93;;;;;;;;;;5116272;28;20035;-58
2023/11/26 02:47:59;;;;;;;6.90;2.97;;;;;;;;;;5116685;28;20038;-58
2023/11/26 02:50:25;;;;;;;4.83;2.53;;;;;;;;;;5116141;28;20036;-58
2023/11/26 02:52:51;;;;;;;4.07;2.47;;;;;;;;;;5115862;28;20020;-58
2023/11/26 02:55:21;;;;;;;7.53;2.80;;;;;;;;;;5116529;28;20052;-58
2023/11/26 02:57:47;;;;;;;3.92;2.58;;;;;;;;;;5116064;28;20032;-58
2023/11/26 03:00:17;;;;;;;8.73;3.20;;;;;;;;;;5116183;28;20032;-58
2023/11/26 03:02:46;;;;;;;3.83;2.53;;;;;;;;;;5115974;28;20020;-58
2023/11/26 03:05:18;;;;;;;2.70;1.80;;;;;;;;;;5115918;28;20027;-58
2023/11/26 03:07:46;;;;;;;6.80;2.73;;;;;;;;;;5116455;28;20074;-58
2023/11/26 03:13:12;;;;;;;4.37;2.20;;;;;;;;;;5116148;28;20073;-58
2023/11/26 03:15:39;;;;;;;5.40;2.17;;;;;;;;;;5116231;28;20016;-58
2023/11/26 03:18:08;;;;;;;6.63;2.50;;;;;;;;;;5115666;28;20019;-57
2023/11/26 03:20:35;;;;;;;3.30;1.73;;;;;;;;;;5116084;28;20054;-58
2023/11/26 03:23:01;;;;;;;3.23;2.33;;;;;;;;;;5115478;28;20460;-58
2023/11/26 03:25:27;;;;;;;4.67;2.67;;;;;;;;;;5116231;28;20036;-57
2023/11/26 03:27:54;;;;;;;3.33;1.97;;;;;;;;;;5116008;28;20019;-58
2023/11/26 03:30:20;;;;;;;4.03;1.57;;;;;;;;;;5115873;28;20039;-57
2023/11/26 03:32:46;;;;;;;3.53;1.50;;;;;;;;;;5115376;28;20028;-58
2023/11/26 03:35:12;;;;;;;3.40;1.33;;;;;;;;;;5115362;28;20026;-57
2023/11/26 03:37:38;;;;;;;6.37;1.60;;;;;;;;;;5114926;28;20399;-58
2023/11/26 03:40:08;;;;;;;3.83;1.70;;;;;;;;;;5115691;28;20081;-58
2023/11/26 03:42:36;;;;;;;4.57;1.40;;;;;;;;;;5115653;28;20024;-58
2023/11/26 03:45:02;;;;;;;2.73;2.13;;;;;;;;;;5115083;28;20023;-58
2023/11/26 03:47:28;;;;;;;4.17;1.63;;;;;;;;;;5115511;28;20080;-58
2023/11/26 03:49:54;;;;;;;2.43;1.50;;;;;;;;;;5114892;28;20042;-58
2023/11/26 03:52:20;;;;;;;5.67;2.33;;;;;;;;;;5114724;28;20395;-58
2023/11/26 03:54:47;;;;;;;8.17;2.00;;;;;;;;;;5115226;28;20027;-57
2023/11/26 03:57:13;;;;;;;2.73;1.20;;;;;;;;;;5114492;28;20631;-57
2023/11/26 03:59:42;;;;;;;7.27;1.90;;;;;;;;;;5114863;28;20102;-57
2023/11/26 04:02:08;;;;;;;3.77;1.60;;;;;;;;;;5114811;28;20110;-58
2023/11/26 04:04:34;;;;;;;3.47;1.50;;;;;;;;;;5114576;28;20055;-57
2023/11/26 04:07:00;;;;;;;2.60;1.40;;;;;;;;;;5115419;28;20473;-57
2023/11/26 04:09:26;;;;;;;3.80;1.70;;;;;;;;;;5115200;28;20403;-58
2023/11/26 04:11:52;;;;;;;2.50;1.43;;;;;;;;;;5115347;28;20074;-58
2023/11/26 04:14:18;;;;;;;3.90;2.20;;;;;;;;;;5114590;28;20168;-58
2023/11/26 04:16:48;;;;;;;2.33;1.23;;;;;;;;;;5114513;28;20445;-58
2023/11/26 04:19:15;;;;;;;1.80;1.20;;;;;;;;;;5114997;28;20031;-58
2023/11/26 04:21:43;;;;;;;2.20;1.20;;;;;;;;;;5114975;28;20080;-57
2023/11/26 04:24:09;;;;;;;8.90;1.70;;;;;;;;;;5114434;28;20026;-58
2023/11/26 04:26:35;;;;;;;9.97;2.23;;;;;;;;;;5114650;28;20023;-58
2023/11/26 04:29:01;;;;;;;3.72;1.23;;;;;;;;;;5115127;28;20520;-58
2023/11/26 04:31:27;;;;;;;2.00;1.17;;;;;;;;;;5114249;28;20046;-58
2023/11/26 04:33:53;;;;;;;3.27;1.50;;;;;;;;;;5115037;28;20020;-58
2023/11/26 04:36:19;;;;;;;7.73;1.50;;;;;;;;;;5114708;28;20413;-58
2023/11/26 04:38:45;;;;;;;4.85;1.10;;;;;;;;;;5114275;28;20107;-58
2023/11/26 04:41:11;;;;;;;2.40;1.33;;;;;;;;;;5114651;28;20433;-58
2023/11/26 04:43:36;;;;;;;6.20;1.80;;;;;;;;;;5114415;28;20028;-58
2023/11/26 04:46:02;;;;;;;2.50;1.53;;;;;;;;;;5114205;28;20023;-58
2023/11/26 04:48:29;;;;;;;2.83;1.57;;;;;;;;;;5113954;28;20031;-58
2023/11/26 04:50:56;;;;;;;3.87;1.60;;;;;;;;;;5114660;28;20446;-58
2023/11/26 04:53:23;;;;;;;3.40;2.20;;;;;;;;;;5114946;28;20102;-60
2023/11/26 04:55:49;;;;;;;6.13;1.47;;;;;;;;;;5113853;28;20058;-60
2023/11/26 04:58:15;;;;;;;2.17;1.48;;;;;;;;;;5114033;28;20095;-60
2023/11/26 05:00:41;;;;;;;5.73;2.03;;;;;;;;;;5114312;28;20031;-60
2023/11/26 05:03:07;;;;;;;2.37;1.23;;;;;;;;;;5114025;28;20080;-60
2023/11/26 05:05:33;;;;;;;4.55;2.05;;;;;;;;;;5114513;28;20390;-60
2023/11/26 05:07:59;;;;;;;5.70;2.07;;;;;;;;;;5114570;28;20178;-60
2023/11/26 05:10:26;;;;;;;3.07;1.80;;;;;;;;;;5113914;28;20040;-58
2023/11/26 05:12:52;;;;;;;2.93;1.33;;;;;;;;;;5113830;28;20032;-58
2023/11/26 05:15:18;;;;;;;3.50;1.77;;;;;;;;;;5113807;28;20024;-58
2023/11/26 05:17:44;;;;;;;4.67;1.77;;;;;;;;;;5114292;28;20024;-58
2023/11/26 05:20:13;;;;;;;3.57;1.93;;;;;;;;;;5113733;28;20035;-58
2023/11/26 05:22:40;;;;;;;4.30;2.17;;;;;;;;;;5113507;28;20024;-58
2023/11/26 05:25:06;;;;;;;2.00;1.20;;;;;;;;;;5114232;28;20038;-58
2023/11/26 05:27:32;;;;;;;6.00;1.73;;;;;;;;;;5113971;28;20059;-58
2023/11/26 05:30:00;;;;;;;5.20;1.50;;;;;;;;;;5114167;28;20381;-58
2023/11/26 05:32:26;;;;;;;6.57;1.83;;;;;;;;;;5114169;28;20076;-58
2023/11/26 05:34:52;;;;;;;4.63;2.03;;;;;;;;;;5113630;28;20027;-58
2023/11/26 05:37:18;;;;;;;5.37;2.13;;;;;;;;;;5114224;28;20418;-58
2023/11/26 05:39:44;;;;;;;2.93;1.57;;;;;;;;;;5113941;28;20024;-58
2023/11/26 05:42:10;;;;;;;3.87;2.03;;;;;;;;;;5113316;28;20114;-58
2023/11/26 05:44:36;;;;;;;2.30;1.40;;;;;;;;;;5113576;28;20024;-58
2023/11/26 05:47:02;;;;;;;4.63;1.70;;;;;;;;;;5114104;28;20027;-57
2023/11/26 05:49:28;;;;;;;4.95;1.80;;;;;;;;;;5113750;28;20032;-57
2023/11/26 05:51:57;;;;;;;3.40;1.93;;;;;;;;;;5113874;28;20067;-58
2023/11/26 05:54:23;;;;;;;2.97;1.70;;;;;;;;;;5095651;28;20384;-58
2023/11/26 05:56:50;;;;;;;2.30;1.27;;;;;;;;;;5114059;28;20057;-58
2023/11/26 05:59:19;;;;;;;1.63;0.93;;;;;;;;;;5113612;28;20445;-58
2023/11/26 06:01:45;;;;;;;2.33;1.20;;;;;;;;;;5117283;28;20028;-57
2023/11/26 06:04:11;;;;;;;3.17;1.88;;;;;;;;;;5116911;28;20024;-58
2023/11/26 06:06:37;;;;;;;4.47;1.90;;;;;;;;;;5117179;28;20035;-58
2023/11/26 06:09:03;;;;;;;6.47;1.70;;;;;;;;;;5117775;28;20019;-58
2023/11/26 06:11:29;;;;;;;3.78;1.33;;;;;;;;;;5117473;28;20043;-58
2023/11/26 06:13:55;;;;;;;2.93;1.27;;;;;;;;;;5116778;28;20453;-58
2023/11/26 06:16:21;;;;;;;3.17;1.55;;;;;;;;;;5117281;28;20020;-58
2023/11/26 06:18:47;;;;;;;5.00;1.93;;;;;;;;;;5117090;28;20026;-58
2023/11/26 06:21:16;;;;;;;2.90;1.67;;;;;;;;;;5116936;28;20027;-58
2023/11/26 06:23:42;;;;;;;2.72;1.80;;;;;;;;;;5116811;28;20032;-58
2023/11/26 06:26:08;;;;;;;3.73;2.30;;;;;;;;;;5116558;28;20027;-58
2023/11/26 06:28:34;;;;;;;10.00;3.77;;;;;;;;;;5116822;28;20407;-58
2023/11/26 06:31:00;;;;;;;6.57;3.83;;;;;;;;;;5116388;28;20024;-58
2023/11/26 06:33:25;;;;;;;4.63;2.53;;;;;;;;;;5116991;28;20020;-58
2023/11/26 06:35:51;;;;;;;6.20;2.95;;;;;;;;;;5116622;28;20045;-57
2023/11/26 06:38:17;;;;;;;4.17;2.77;;;;;;;;;;5117010;28;20020;-58
2023/11/26 06:40:43;;;;;;;4.32;2.20;;;;;;;;;;5117407;28;20028;-58
2023/11/26 06:43:09;;;;;;;6.10;1.63;;;;;;;;;;5117060;28;20024;-58
2023/11/26 06:45:35;;;;;;;16.47;2.40;;;;;;;;;;5116512;28;20350;-57
2023/11/26 06:48:01;;;;;;;4.13;1.87;;;;;;;;;;5116798;28;20552;-58
2023/11/26 06:50:27;;;;;;;6.27;2.53;;;;;;;;;;5117109;28;20039;-58
2023/11/26 06:52:53;;;;;;;3.85;1.33;;;;;;;;;;5116898;28;20364;-58
2023/11/26 06:55:19;;;;;;;2.57;1.40;;;;;;;;;;5116238;28;20058;-57
2023/11/26 06:57:46;;;;;;;2.47;1.43;;;;;;;;;;5116781;28;20019;-58
2023/11/26 07:00:13;;;;;;;2.20;1.50;;;;;;;;;;5115931;28;20384;-58
2023/11/26 07:02:39;;;;;;;2.73;1.30;;;;;;;;;;5116441;28;20103;-57
2023/11/26 07:05:06;;;;;;;3.53;1.87;;;;;;;;;;5116099;28;20067;-58
2023/11/26 07:07:32;;;;;;;3.97;1.63;;;;;;;;;;5116337;28;20023;-58
2023/11/26 07:09:58;;;;;;;2.75;1.83;;;;;;;;;;5116476;28;20360;-58
2023/11/26 07:12:29;;;;;;;2.30;1.37;;;;;;;;;;5115493;28;20024;-58
2023/11/26 07:14:55;;;;;;;2.93;1.43;;;;;;;;;;5116641;28;20027;-58
2023/11/26 07:17:24;;;;;;;4.17;1.73;;;;;;;;;;5116486;28;20031;-58
2023/11/26 07:19:51;;;;;;;4.07;1.47;;;;;;;;;;5115787;28;20028;-58
2023/11/26 07:22:17;;;;;;;5.63;2.47;;;;;;;;;;5115735;28;20028;-57
2023/11/26 07:24:43;;;;;;;2.30;1.50;;;;;;;;;;5115740;28;20471;-57
2023/11/26 07:27:09;;;;;;;3.40;1.48;;;;;;;;;;5116286;28;20051;-58
2023/11/26 07:29:38;;;;;;;4.00;2.20;;;;;;;;;;5116385;28;20035;-58
2023/11/26 07:32:05;;;;;;;3.95;1.98;;;;;;;;;;5115550;28;20057;-58
2023/11/26 07:34:32;;;;;;;3.57;1.93;;;;;;;;;;5115432;28;20401;-58
2023/11/26 07:36:58;;;;;;;6.90;2.25;;;;;;;;;;5115772;28;20030;-57
2023/11/26 07:39:24;;;;;;;3.13;2.20;;;;;;;;;;5116241;28;20024;-58
2023/11/26 07:41:50;;;;;;;2.75;2.05;;;;;;;;;;5115315;28;20128;-58
2023/11/26 07:44:16;;;;;;;5.83;2.03;;;;;;;;;;5115376;28;20032;-58
2023/11/26 07:46:42;;;;;;;5.80;2.30;;;;;;;;;;5115774;28;20028;-58
2023/11/26 07:49:08;;;;;;;4.32;1.95;;;;;;;;;;5115120;28;20339;-58
2023/11/26 07:51:34;;;;;;;2.47;1.55;;;;;;;;;;5115134;28;20031;-58
2023/11/26 07:54:00;;;;;;;4.07;2.30;;;;;;;;;;5115469;28;20089;-58
2023/11/26 07:56:27;;;;;;;3.58;2.40;;;;;;;;;;5115385;28;20469;-59
2023/11/26 07:58:52;;;;;;;4.90;2.30;;;;;;;;;;5115037;28;20055;-59
2023/11/26 08:01:18;;;;;;;6.20;2.20;;;;;;;;;;5115098;28;20453;-59
2023/11/26 08:03:44;;;;;;;7.57;2.73;;;;;;;;;;5115514;28;20027;-59
2023/11/26 08:06:14;;;;;;;3.47;2.15;;;;;;;;;;5115126;28;20377;-59
2023/11/26 08:08:40;;;;;;;3.50;1.98;;;;;;;;;;5114895;28;20527;-59
2023/11/26 08:11:09;;;;;;;3.80;2.47;;;;;;;;;;5115258;28;20035;-60
2023/11/26 08:13:38;;;;;;;7.13;2.63;;;;;;;;;;5114703;28;20028;-60
2023/11/26 08:16:09;;;;;;;3.42;2.50;;;;;;;;;;5115023;28;20106;-60
2023/11/26 08:18:35;;;;;;;3.42;2.03;;;;;;;;;;5115523;28;20411;-60
2023/11/26 08:21:06;;;;;;;5.53;2.28;;;;;;;;;;5115060;28;20368;-58
2023/11/26 08:23:32;;;;;;;4.55;1.77;;;;;;;;;;5114207;28;20054;-58
2023/11/26 08:25:58;;;;;;;3.90;2.10;;;;;;;;;;5114473;28;20023;-58
2023/11/26 08:28:28;;;;;;;4.75;2.70;;;;;;;;;;5114989;28;20019;-58
2023/11/26 08:30:55;;;;;;;3.58;2.20;;;;;;;;;;5114913;28;20027;-58
2023/11/26 08:33:22;;;;;;;7.78;3.28;;;;;;;;;;5114949;28;20031;-58
2023/11/26 08:35:57;;;;;;;6.70;3.28;;;;;;;;;;5114382;28;20401;-58
2023/11/26 08:38:24;;;;;;;3.80;2.33;;;;;;;;;;5114929;28;20111;-58
2023/11/26 08:40:50;;;;;;;4.50;2.50;;;;;;;;;;5114897;28;20028;-57
2023/11/26 08:43:19;;;;;;;2.90;2.58;;;;;;;;;;5114591;28;20020;-58
2023/11/26 08:45:45;;;;;;;5.45;2.97;;;;;;;;;;5114386;28;20152;-58
2023/11/26 08:48:13;;;;;;;8.30;3.07;;;;;;;;;;5114313;28;20024;-58
2023/11/26 08:50:39;;;;;;;8.83;2.87;;;;;;;;;;5114101;28;20031;-58
2023/11/26 08:53:07;;;;;;;6.15;3.20;;;;;;;;;;5114376;28;20058;-58
2023/11/26 08:55:33;;;;;;;4.70;3.42;;;;;;;;;;5114222;28;20458;-59
2023/11/26 08:58:00;;;;;;;4.88;3.45;;;;;;;;;;5114095;28;20026;-58
2023/11/26 09:00:26;;;;;;;3.47;2.80;;;;;;;;;;5114612;28;20059;-59
2023/11/26 09:02:52;;;;;;;5.32;3.47;;;;;;;;;;5114406;28;20054;-60
2023/11/26 09:05:18;;;;;;;5.63;3.30;;;;;;;;;;5114714;28;20400;-58
2023/11/26 09:07:45;;;;;;;4.40;3.25;;;;;;;;;;5114285;28;20028;-58
2023/11/26 09:10:14;;;;;;;4.28;3.20;;;;;;;;;;5113786;28;20067;-58
2023/11/26 09:12:41;;;;;;;4.55;3.38;;;;;;;;;;5114559;28;20119;-58
2023/11/26 09:15:07;;;;;;;4.45;2.75;;;;;;;;;;5113536;28;20027;-59
2023/11/26 09:17:34;;;;;;;6.63;3.45;;;;;;;;;;5114356;28;20119;-58
2023/11/26 09:20:00;;;;;;;12.60;4.05;;;;;;;;;;5113864;28;20088;-59
2023/11/26 09:22:26;;;;;;;5.65;3.42;;;;;;;;;;5114326;28;20024;-59
2023/11/26 09:24:52;;;;;;;6.32;3.38;;;;;;;;;;5113416;28;20373;-59
2023/11/26 09:27:18;;;;;;;10.15;3.88;;;;;;;;;;5114338;28;20031;-59
2023/11/26 09:29:44;;;;;;;10.23;4.05;;;;;;;;;;5113620;28;20059;-59
2023/11/26 09:32:10;;;;;;;10.88;4.28;;;;;;;;;;5113646;28;20058;-59
2023/11/26 09:34:36;;;;;;;5.75;3.67;;;;;;;;;;5114300;28;20032;-60
2023/11/26 09:37:04;;;;;;;5.55;3.05;;;;;;;;;;5117594;28;20137;-60
2023/11/26 09:39:34;;;;;;;3.53;2.70;;;;;;;;;;5117663;28;20055;-60
2023/11/26 09:42:04;;;;;;;4.30;2.88;;;;;;;;;;5118136;28;20054;-60
2023/11/26 09:44:30;;;;;;;5.55;3.40;;;;;;;;;;5117880;28;20027;-60
2023/11/26 09:46:57;;;;;;;5.68;3.20;;;;;;;;;;5117569;28;20024;-59
2023/11/26 09:49:23;;;;;;;4.25;2.85;;;;;;;;;;5117588;28;20058;-60
2023/11/26 09:52:01;;;;;;;10.20;3.10;;;;;;;;;;5117944;28;20067;-60
2023/11/26 09:54:27;;;;;;;6.43;3.63;;;;;;;;;;5117946;28;20023;-60
2023/11/26 09:56:58;;;;;;;4.25;2.28;;;;;;;;;;5117369;28;20130;-60
2023/11/26 09:59:28;;;;;;;4.63;2.30;;;;;;;;;;5117352;28;20032;-60
2023/11/26 10:01:54;;;;;;;4.05;2.08;;;;;;;;;;5116263;28;20039;-60
2023/11/26 10:04:21;;;;;;;4.93;2.75;;;;;;;;;;5117233;28;20028;-60
2023/11/26 10:06:57;;;;;;;7.18;2.47;;;;;;;;;;5117526;28;20058;-60
2023/11/26 10:09:23;;;;;;;3.63;2.00;;;;;;;;;;5117710;28;20032;-60
2023/11/26 10:11:49;;;;;;;3.78;2.22;;;;;;;;;;5117069;28;20053;-60
2023/11/26 10:14:15;;;;;;;8.90;2.40;;;;;;;;;;5117372;28;20024;-60
2023/11/26 10:16:42;;;;;;;4.38;2.10;;;;;;;;;;5117275;28;20026;-60
2023/11/26 10:19:08;;;;;;;3.75;2.03;;;;;;;;;;5116865;28;20035;-60
2023/11/26 10:21:34;;;;;;;4.05;2.25;;;;;;;;;;5116569;28;20032;-60
2023/11/26 10:24:01;;;;;;;5.38;2.42;;;;;;;;;;5116932;28;20031;-60
2023/11/26 10:26:29;;;;;;;5.68;2.10;;;;;;;;;;5116873;28;20389;-60
2023/11/26 10:29:13;;;;;;;3.80;2.38;;;;;;;;;;5117724;28;20407;-60
2023/11/26 10:31:39;;;;;;;8.48;2.75;;;;;;;;;;5116379;28;20035;-59
2023/11/26 10:34:08;;;;;;;5.15;2.30;;;;;;;;;;5116403;28;20028;-60
2023/11/26 10:36:35;;;;;;;4.28;2.67;;;;;;;;;;5116369;28;20402;-60
2023/11/26 10:39:04;;;;;;;9.50;3.33;;;;;;;;;;5116805;28;20331;-60
2023/11/26 10:41:34;;;;;;;7.25;3.45;;;;;;;;;;5116274;28;20122;-60
2023/11/26 10:44:00;;;;;;;4.75;2.45;;;;;;;;;;5116055;28;20031;-60
2023/11/26 10:46:29;;;;;;;3.58;2.47;;;;;;;;;;5115632;28;20085;-60
2023/11/26 10:48:56;;;;;;;3.35;2.65;;;;;;;;;;5116671;28;20024;-60
2023/11/26 10:51:26;;;;;;;4.80;3.05;;;;;;;;;;5116093;28;20027;-60
2023/11/26 10:54:05;;;;;;;8.93;2.35;;;;;;;;;;5116047;28;20027;-60
2023/11/26 10:56:38;;;;;;;4.93;2.92;;;;;;;;;;5116231;28;20043;-60
2023/11/26 10:59:07;;;;;;;4.10;2.47;;;;;;;;;;5115958;28;20032;-60
2023/11/26 11:01:33;;;;;;;5.03;2.75;;;;;;;;;;5116477;28;20028;-60
2023/11/26 11:04:00;;;;;;;3.30;2.60;;;;;;;;;;5115412;28;20178;-60
2023/11/26 11:06:26;;;;;;;8.07;2.75;;;;;;;;;;5116603;28;20038;-60
2023/11/26 11:08:52;;;;;;;3.78;2.88;;;;;;;;;;5116080;28;20024;-60
2023/11/26 11:11:31;;;;;;;3.88;2.45;;;;;;;;;;5115941;28;20039;-60
2023/11/26 11:13:57;;;;;;;5.07;3.00;;;;;;;;;;5116306;28;20020;-60
2023/11/26 11:16:24;;;;;;;3.03;2.13;;;;;;;;;;5115690;28;20023;-60
2023/11/26 11:18:50;;;;;;;5.93;2.78;;;;;;;;;;5115644;28;20056;-60
2023/11/26 11:21:18;;;;;;;6.65;3.05;;;;;;;;;;5116087;28;20118;-59
2023/11/26 11:23:45;;;;;;;4.53;2.50;;;;;;;;;;5116032;28;20024;-60
2023/11/26 11:26:12;;;;;;;7.28;2.80;;;;;;;;;;5115089;28;20020;-60
2023/11/26 11:28:44;;;;;;;2.75;1.80;;;;;;;;;;5097258;28;20120;-59
2023/11/26 11:31:11;;;;;;;3.38;2.60;;;;;;;;;;5115420;28;20040;-60
2023/11/26 11:33:57;;;;;;;4.35;2.33;;;;;;;;;;5116272;28;20036;-60
2023/11/26 11:36:46;;;;;;;4.43;2.58;;;;;;;;;;5116015;28;20106;-60
2023/11/26 11:39:16;;;;;;;2.30;1.83;;;;;;;;;;5115615;28;20032;-60
2023/11/26 11:41:57;;;;;;;3.35;2.30;;;;;;;;;;5115489;28;20031;-60
2023/11/26 11:44:33;;;;;;;3.47;1.60;;;;;;;;;;5115317;28;20027;-59
2023/11/26 11:46:59;;;;;;;3.53;2.20;;;;;;;;;;5115381;28;20019;-58
2023/11/26 11:49:31;;;;;;;6.43;2.67;;;;;;;;;;5115175;28;20058;-59
2023/11/26 11:51:57;;;;;;;2.75;1.88;;;;;;;;;;5115581;28;20080;-59
2023/11/26 11:54:26;;;;;;;3.13;1.65;;;;;;;;;;5115047;28;20465;-59
2023/11/26 11:56:58;;;;;;;6.00;2.05;;;;;;;;;;5115271;28;20093;-60
2023/11/26 11:59:25;;;;;;;3.83;2.38;;;;;;;;;;5114876;28;20369;-59
2023/11/26 12:01:52;;;;;;;4.95;2.38;;;;;;;;;;5115130;28;20368;-60
2023/11/26 12:04:19;;;;;;;5.90;1.90;;;;;;;;;;5114710;28;20477;-58
2023/11/26 12:06:51;;;;;;;3.53;2.50;;;;;;;;;;5115138;28;20126;-58
2023/11/26 12:09:17;;;;;;;5.25;2.03;;;;;;;;;;5115422;28;20073;-58
2023/11/26 12:11:43;;;;;;;3.60;1.90;;;;;;;;;;5115229;28;20036;-60
2023/11/26 12:14:10;;;;;;;3.50;1.83;;;;;;;;;;5114984;28;20043;-60
2023/11/26 12:16:36;;;;;;;2.40;1.70;;;;;;;;;;5114469;28;20065;-60
2023/11/26 12:19:02;;;;;;;3.38;2.22;;;;;;;;;;5115210;28;20027;-58
2023/11/26 12:21:29;;;;;;;3.88;1.83;;;;;;;;;;5114539;28;20088;-60
2023/11/26 12:23:55;;;;;;;5.90;2.05;;;;;;;;;;5114154;28;20119;-58
2023/11/26 12:26:21;;;;;;;3.65;1.83;;;;;;;;;;5114467;28;20514;-58
2023/11/26 12:28:47;;;;;;;4.13;2.28;;;;;;;;;;5114564;28;20072;-58
2023/11/26 12:31:16;;;;;;;5.97;2.00;;;;;;;;;;5114750;28;20027;-59
2023/11/26 12:33:47;;;;;;;2.70;1.42;;;;;;;;;;5115010;28;20119;-59
2023/11/26 12:36:13;;;;;;;4.90;1.42;;;;;;;;;;5114871;28;20031;-59
2023/11/26 12:38:42;;;;;;;5.55;1.92;;;;;;;;;;5114794;28;20057;-59
2023/11/26 12:41:09;;;;;;;1.77;1.10;;;;;;;;;;5114880;28;20353;-59
2023/11/26 12:43:35;;;;;;;2.95;1.35;;;;;;;;;;5114473;28;20424;-59
2023/11/26 12:46:08;;;;;;;2.65;1.42;;;;;;;;;;5114629;28;20023;-59
2023/11/26 12:48:34;;;;;;;1.88;1.15;;;;;;;;;;5114077;28;20119;-59
2023/11/26 12:51:00;;;;;;;3.67;1.35;;;;;;;;;;5113996;28;20085;-59
2023/11/26 12:53:26;;;;;;;5.32;1.38;;;;;;;;;;5113974;28;20027;-59
2023/11/26 12:55:52;;;;;;;2.55;1.30;;;;;;;;;;5114654;28;20063;-61
2023/11/26 12:58:19;;;;;;;3.17;1.25;;;;;;;;;;5114620;28;20081;-59
2023/11/26 13:00:45;;;;;;;3.00;1.10;;;;;;;;;;5114365;28;20366;-61
2023/11/26 13:03:15;;;;;;;3.10;1.50;;;;;;;;;;5113968;28;20016;-59
2023/11/26 13:05:41;;;;;;;2.50;1.27;;;;;;;;;;5113798;28;20468;-59
2023/11/26 13:08:23;;;;;;;2.00;0.95;;;;;;;;;;5113871;28;20020;-58
2023/11/26 13:10:50;;;;;;;3.60;1.65;;;;;;;;;;5118396;28;20054;-58
2023/11/26 13:13:27;;;;;;;3.90;1.10;;;;;;;;;;5118159;28;20032;-59
2023/11/26 13:15:58;;;;;;;2.40;1.33;;;;;;;;;;5118652;28;20019;-59
2023/11/26 13:18:25;;;;;;;2.40;1.35;;;;;;;;;;5118122;28;20072;-59
2023/11/26 13:21:03;;;;;;;2.17;1.13;;;;;;;;;;5117987;28;20027;-59
2023/11/26 13:23:29;;;;;;;3.58;1.52;;;;;;;;;;5117669;28;20540;-59
2023/11/26 13:25:57;;;;;;;3.97;1.40;;;;;;;;;;5118042;28;20095;-59
2023/11/26 13:28:23;;;;;;;2.53;1.35;;;;;;;;;;5118516;28;20032;-58
2023/11/26 13:30:49;;;;;;;1.20;0.80;;;;;;;;;;5117445;28;20161;-59
2023/11/26 13:33:15;;;;;;;4.28;1.40;;;;;;;;;;5117820;28;20024;-57
2023/11/26 13:35:43;;;;;;;2.03;1.30;;;;;;;;;;5117609;28;20027;-59
2023/11/26 13:38:10;;;;;;;3.08;1.70;;;;;;;;;;5118128;28;20032;-59
2023/11/26 13:40:37;;;;;;;2.10;1.20;;;;;;;;;;5117997;28;20039;-59
2023/11/26 13:43:03;;;;;;;2.83;1.52;;;;;;;;;;5118082;28;20086;-59
2023/11/26 13:45:29;;;;;;;3.58;1.83;;;;;;;;;;5117334;28;20106;-59
2023/11/26 13:47:56;;;;;;;2.53;1.05;;;;;;;;;;5118007;28;20055;-59
2023/11/26 13:50:22;;;;;;;3.20;1.50;;;;;;;;;;5117317;28;20107;-60
2023/11/26 13:52:48;;;;;;;4.65;1.70;;;;;;;;;;5117409;28;20047;-59
2023/11/26 13:55:14;;;;;;;3.70;1.70;;;;;;;;;;5116963;28;20491;-60
2023/11/26 13:57:42;;;;;;;2.92;1.48;;;;;;;;;;5117718;28;20072;-59
2023/11/26 14:00:10;;;;;;;2.97;2.00;;;;;;;;;;5117594;28;20117;-60
2023/11/26 14:02:36;;;;;;;4.30;1.55;;;;;;;;;;5116881;28;20023;-58
2023/11/26 14:05:08;;;;;;;3.65;2.08;;;;;;;;;;5117854;28;20369;-58
2023/11/26 14:07:34;;;;;;;2.38;1.55;;;;;;;;;;5118120;28;20157;-58
2023/11/26 14:10:00;;;;;;;3.92;1.70;;;;;;;;;;5117056;28;20055;-58
2023/11/26 14:12:26;;;;;;;2.80;1.48;;;;;;;;;;5117451;28;20115;-58
2023/11/26 14:14:52;;;;;;;3.00;1.52;;;;;;;;;;5117129;28;20128;-57
2023/11/26 14:17:18;;;;;;;2.72;1.05;;;;;;;;;;5117593;28;20035;-58
2023/11/26 14:19:44;;;;;;;5.63;1.70;;;;;;;;;;5116750;28;20365;-58
2023/11/26 14:22:10;;;;;;;2.72;1.42;;;;;;;;;;5116128;28;20384;-58
2023/11/26 14:24:37;;;;;;;4.30;1.73;;;;;;;;;;5117137;28;20107;-57
2023/11/26 14:27:03;;;;;;;2.38;1.17;;;;;;;;;;5116874;28;20031;-58
2023/11/26 14:29:30;;;;;;;4.05;1.70;;;;;;;;;;5117266;28;20031;-58
2023/11/26 14:31:56;;;;;;;3.45;1.20;;;;;;;;;;5116678;28;20526;-57
2023/11/26 14:34:22;;;;;;;6.93;1.23;;;;;;;;;;5116930;28;20027;-58
2023/11/26 14:36:48;;;;;;;2.53;1.20;;;;;;;;;;5117183;28;20057;-58
2023/11/26 14:39:14;;;;;;;3.60;2.53;;;;;;;;;;5116617;28;20030;-57
2023/11/26 14:41:40;;;;;;;2.83;1.30;;;;;;;;;;5117025;28;20441;-58
2023/11/26 14:44:06;;;;;;;4.93;1.48;;;;;;;;;;5116491;28;20026;-58
2023/11/26 14:46:34;;;;;;;5.32;1.67;;;;;;;;;;5116488;28;20027;-57